Time;durP1;ratioP1;P1;durP2;ratioP2;P2;SDS_P1;SDS_P2;PMS_P1;PMS_P2;Temp;Humidity;BMP_temperature;BMP_pressure;BME280_temperature;BME280_humidity;BME280_pressure;Samples;Min_cycle;Max_cycle;Signal;HPM_P1;HPM_P2
2021/12/27 00:01:57;;;;;;;;;;;;;;;4.06;100.00;94642.88;10358245;28;1752;-71
2021/12/27 00:07:01;;;;;;;;;;;;;;;4.11;100.00;94629.59;10365568;28;1921;-71
2021/12/27 00:12:05;;;;;;;;;;;;;;;4.15;100.00;94628.03;10362858;28;1751;-70
2021/12/27 00:17:10;;;;;;;;;;;;;;;4.19;100.00;94625.63;10372739;28;1972;-70
2021/12/27 00:22:14;;;;;;;;;;;;;;;4.21;100.00;94629.66;10363608;28;1839;-69
2021/12/27 00:27:17;;;;;;;;;;;;;;;4.26;100.00;94627.00;10363019;28;1930;-71
2021/12/27 00:32:21;;;;;;;;;;;;;;;4.30;100.00;94624.63;10368615;22;1872;-75
2021/12/27 00:37:25;;;;;;;;;;;;;;;4.31;100.00;94626.22;10325927;28;1911;-75
2021/12/27 00:42:28;;;;;;;;;;;;;;;4.22;100.00;94625.13;10330353;28;1784;-74
2021/12/27 00:47:32;;;;;;;;;;;;;;;4.25;100.00;94620.06;10335352;28;1887;-74
2021/12/27 00:52:36;;;;;;;;;;;;;;;4.20;100.00;94611.28;10355950;28;1962;-74
2021/12/27 00:57:40;;;;;;;;;;;;;;;4.15;100.00;94609.41;10327766;28;1907;-74
2021/12/27 01:02:43;;;;;;;;;;;;;;;4.13;100.00;94616.84;10339534;28;1839;-74
2021/12/27 01:07:47;;;;;;;;;;;;;;;4.10;100.00;94617.38;10322378;28;1898;-75
2021/12/27 01:13:03;;;;;;;;;;;;;;;4.05;100.00;94609.38;10334952;28;1856;-75
2021/12/27 01:18:06;;;;;;;;;;;;;;;4.06;100.00;94616.28;10321225;28;1935;-75
2021/12/27 01:23:10;;;;;;;;;;;;;;;4.12;100.00;94625.09;10323990;28;1979;-73
2021/12/27 01:28:16;;;;;;;;;;;;;;;4.10;100.00;94620.03;10317591;28;1907;-73
2021/12/27 01:33:19;;;;;;;;;;;;;;;4.17;100.00;94617.94;10345997;28;1868;-74
2021/12/27 01:38:22;;;;;;;;;;;;;;;4.17;100.00;94612.59;10323441;28;1914;-74
2021/12/27 01:43:26;;;;;;;;;;;;;;;4.12;100.00;94617.91;10329113;28;1745;-74
2021/12/27 01:48:32;;;;;;;;;;;;;;;4.15;100.00;94620.06;10325176;28;1903;-74
2021/12/27 01:53:35;;;;;;;;;;;;;;;4.18;100.00;94608.09;10320873;28;1877;-74
2021/12/27 01:58:39;;;;;;;;;;;;;;;4.24;100.00;94607.84;10320135;28;1914;-74
2021/12/27 02:03:42;;;;;;;;;;;;;;;4.29;100.00;94594.56;10339686;28;1836;-74
2021/12/27 02:08:46;;;;;;;;;;;;;;;4.38;100.00;94610.78;10341695;28;1943;-75
2021/12/27 02:13:50;;;;;;;;;;;;;;;4.40;100.00;94610.56;10354478;28;1906;-75
2021/12/27 02:18:53;;;;;;;;;;;;;;;4.31;100.00;94596.94;10343203;28;1911;-75
2021/12/27 02:23:59;;;;;;;;;;;;;;;4.27;100.00;94594.03;10330469;28;1883;-75
2021/12/27 02:29:03;;;;;;;;;;;;;;;4.18;100.00;94592.13;10344431;28;1815;-75
2021/12/27 02:34:08;;;;;;;;;;;;;;;4.19;100.00;94591.84;10338634;28;1828;-75
2021/12/27 02:39:12;;;;;;;;;;;;;;;4.22;100.00;94587.88;10337859;28;1964;-75
2021/12/27 02:44:15;;;;;;;;;;;;;;;4.21;100.00;94594.28;10329440;28;2061;-75
2021/12/27 02:49:20;;;;;;;;;;;;;;;4.17;100.00;94586.00;10331420;28;1987;-75
2021/12/27 02:54:23;;;;;;;;;;;;;;;4.17;100.00;94585.22;10327983;28;2277;-74
2021/12/27 02:59:27;;;;;;;;;;;;;;;4.19;100.00;94594.50;10318102;28;2004;-75
2021/12/27 03:04:31;;;;;;;;;;;;;;;4.28;100.00;94584.97;10350878;28;2372;-75
2021/12/27 03:09:34;;;;;;;;;;;;;;;4.28;100.00;94590.28;10329986;28;1972;-74
2021/12/27 03:14:38;;;;;;;;;;;;;;;4.32;100.00;94590.56;10390009;28;1919;-75
2021/12/27 03:19:53;;;;;;;;;;;;;;;4.34;100.00;94585.78;10374273;28;2023;-75
2021/12/27 03:25:06;;;;;;;;;;;;;;;4.36;100.00;94578.34;10392720;28;1821;-75
2021/12/27 03:30:11;;;;;;;;;;;;;;;4.32;100.00;94577.25;10338102;28;2123;-75
2021/12/27 03:35:16;;;;;;;;;;;;;;;4.29;100.00;94567.16;10327980;28;2051;-75
2021/12/27 03:40:20;;;;;;;;;;;;;;;4.31;100.00;94570.34;10330691;28;1981;-74
2021/12/27 03:45:23;;;;;;;;;;;;;;;4.37;100.00;94571.16;10323498;28;1984;-75
2021/12/27 03:50:27;;;;;;;;;;;;;;;4.37;100.00;94573.81;10329347;28;2050;-73
2021/12/27 03:55:31;;;;;;;;;;;;;;;4.34;100.00;94567.97;10355809;28;2039;-74
2021/12/27 04:00:46;;;;;;;;;;;;;;;4.33;100.00;94570.91;10340701;28;1997;-75
2021/12/27 04:05:50;;;;;;;;;;;;;;;4.28;100.00;94568.22;10326932;28;1960;-75
2021/12/27 04:10:55;;;;;;;;;;;;;;;4.18;100.00;94565.53;10328756;28;1912;-75
2021/12/27 04:15:59;;;;;;;;;;;;;;;4.17;100.00;94566.59;10337598;28;2003;-73
2021/12/27 04:21:03;;;;;;;;;;;;;;;4.26;100.00;94563.16;10333056;28;2042;-74
2021/12/27 04:26:07;;;;;;;;;;;;;;;4.27;100.00;94566.63;10321439;28;2044;-75
2021/12/27 04:31:11;;;;;;;;;;;;;;;4.33;100.00;94561.06;10335918;28;1920;-74
2021/12/27 04:36:15;;;;;;;;;;;;;;;4.27;100.00;94569.28;10347170;28;1969;-74
2021/12/27 04:41:19;;;;;;;;;;;;;;;4.23;100.00;94558.38;10344868;28;1961;-74
2021/12/27 04:46:23;;;;;;;;;;;;;;;4.18;100.00;94563.66;10318476;28;1953;-74
2021/12/27 04:51:27;;;;;;;;;;;;;;;4.10;100.00;94564.19;10333971;28;2127;-74
2021/12/27 04:56:31;;;;;;;;;;;;;;;4.03;100.00;94571.63;10324357;28;1954;-74
2021/12/27 05:01:35;;;;;;;;;;;;;;;4.06;100.00;94568.41;10330947;28;1977;-74
2021/12/27 05:06:38;;;;;;;;;;;;;;;4.10;100.00;94558.06;10320276;28;2043;-76
2021/12/27 05:11:42;;;;;;;;;;;;;;;4.17;100.00;94564.72;10325415;28;1963;-74
2021/12/27 05:16:47;;;;;;;;;;;;;;;4.21;100.00;94560.50;10339576;28;1972;-74
2021/12/27 05:21:51;;;;;;;;;;;;;;;4.31;100.00;94555.16;10334054;28;1987;-74
2021/12/27 05:26:55;;;;;;;;;;;;;;;4.26;100.00;94560.50;10326812;28;2021;-74
2021/12/27 05:32:01;;;;;;;;;;;;;;;4.22;100.00;94555.97;10331489;28;1925;-74
2021/12/27 05:37:11;;;;;;;;;;;;;;;4.20;100.00;94558.91;10324386;28;2007;-74
2021/12/27 05:42:14;;;;;;;;;;;;;;;4.19;100.00;94556.47;10331248;28;1970;-73
2021/12/27 05:47:17;;;;;;;;;;;;;;;4.17;100.00;94547.97;10319010;28;2363;-74
2021/12/27 05:52:21;;;;;;;;;;;;;;;4.06;100.00;94553.25;10326561;28;1979;-73
2021/12/27 05:57:24;;;;;;;;;;;;;;;4.01;100.00;94547.16;10315117;28;1975;-73
2021/12/27 06:02:28;;;;;;;;;;;;;;;3.96;100.00;94542.63;10320095;28;1911;-75
2021/12/27 06:07:31;;;;;;;;;;;;;;;3.91;100.00;94547.13;10318292;28;2082;-75
2021/12/27 06:12:35;;;;;;;;;;;;;;;3.72;100.00;94542.25;10325527;28;1922;-73
2021/12/27 06:17:38;;;;;;;;;;;;;;;3.60;100.00;94543.53;10323638;28;1999;-74
2021/12/27 06:22:42;;;;;;;;;;;;;;;3.64;100.00;94545.44;10327023;28;1920;-74
2021/12/27 06:27:45;;;;;;;;;;;;;;;3.70;100.00;94544.41;10322086;28;2037;-73
2021/12/27 06:32:49;;;;;;;;;;;;;;;3.74;100.00;94540.13;10315245;28;2033;-75
2021/12/27 06:37:53;;;;;;;;;;;;;;;3.83;100.00;94534.34;10355462;23;2103;-70
2021/12/27 06:42:56;;;;;;;;;;;;;;;3.78;100.00;94538.56;10362696;28;1970;-69
2021/12/27 06:48:00;;;;;;;;;;;;;;;3.63;100.00;94538.53;10365295;28;2116;-70
2021/12/27 06:53:04;;;;;;;;;;;;;;;3.46;100.00;94527.28;10366514;28;2103;-70
2021/12/27 06:58:07;;;;;;;;;;;;;;;3.31;100.00;94527.19;10377253;28;1977;-70
2021/12/27 07:03:14;;;;;;;;;;;;;;;3.20;100.00;94539.66;10364166;28;2213;-69
2021/12/27 07:08:18;;;;;;;;;;;;;;;3.24;100.00;94540.72;10374697;28;1987;-69
2021/12/27 07:13:22;;;;;;;;;;;;;;;3.21;100.00;94542.03;10365638;28;2070;-68
2021/12/27 07:18:25;;;;;;;;;;;;;;;3.15;100.00;94545.72;10365429;28;2406;-70
2021/12/27 07:23:29;;;;;;;;;;;;;;;3.11;100.00;94535.84;10365023;28;1858;-72
2021/12/27 07:28:32;;;;;;;;;;;;;;;3.11;100.00;94539.31;10406766;28;2050;-68
2021/12/27 07:33:36;;;;;;;;;;;;;;;3.18;100.00;94539.09;10376890;28;1436;-69
2021/12/27 07:38:40;;;;;;;;;;;;;;;3.27;100.00;94534.91;10378325;28;1981;-70
2021/12/27 07:43:44;;;;;;;;;;;;;;;3.23;100.00;94531.94;10364179;28;2101;-68
2021/12/27 07:48:47;;;;;;;;;;;;;;;3.29;100.00;94526.66;10363310;28;2018;-69
2021/12/27 07:53:51;;;;;;;;;;;;;;;3.33;100.00;94525.09;10363667;28;2000;-70
2021/12/27 07:58:54;;;;;;;;;;;;;;;3.39;100.00;94534.69;10354643;28;2009;-70
2021/12/27 08:03:57;;;;;;;;;;;;;;;3.26;100.00;94522.69;10363182;28;1952;-69
2021/12/27 08:09:03;;;;;;;;;;;;;;;3.23;100.00;94518.66;10380728;28;1966;-70
2021/12/27 08:14:06;;;;;;;;;;;;;;;3.16;100.00;94514.66;10364190;28;1942;-69
2021/12/27 08:19:09;;;;;;;;;;;;;;;3.12;100.00;94502.97;10374109;28;2073;-70
2021/12/27 08:24:13;;;;;;;;;;;;;;;3.06;100.00;94507.44;10362318;28;2125;-70
2021/12/27 08:29:17;;;;;;;;;;;;;;;3.03;100.00;94510.59;10372418;28;1902;-68
2021/12/27 08:34:21;;;;;;;;;;;;;;;2.95;100.00;94505.78;10374862;28;1974;-69
2021/12/27 08:39:27;;;;;;;;;;;;;;;2.92;100.00;94506.28;10358291;28;1951;-69
2021/12/27 08:44:30;;;;;;;;;;;;;;;2.98;100.00;94507.91;10360366;28;1859;-69
2021/12/27 08:49:33;;;;;;;;;;;;;;;3.00;100.00;94497.84;10360994;28;1862;-69
2021/12/27 08:54:57;;;;;;;;;;;;;;;3.04;100.00;94493.59;10362971;28;1915;-70
2021/12/27 09:00:01;;;;;;;;;;;;;;;3.10;100.00;94491.78;10384382;28;2009;-70
2021/12/27 09:05:05;;;;;;;;;;;;;;;3.28;100.00;94488.69;10392018;28;1984;-69
2021/12/27 09:10:08;;;;;;;;;;;;;;;3.40;100.00;94491.94;10370593;28;1851;-69
2021/12/27 09:15:14;;;;;;;;;;;;;;;3.55;100.00;94493.84;10355843;28;1851;-69
2021/12/27 09:20:17;;;;;;;;;;;;;;;3.96;100.00;94494.75;10364929;28;1903;-69
2021/12/27 09:25:21;;;;;;;;;;;;;;;4.29;100.00;94482.81;10360490;28;1818;-69
2021/12/27 09:30:25;;;;;;;;;;;;;;;4.47;100.00;94470.84;10356402;28;1976;-69
2021/12/27 09:35:28;;;;;;;;;;;;;;;4.43;100.00;94471.66;10361533;28;1835;-71
2021/12/27 09:40:32;;;;;;;;;;;;;;;4.48;100.00;94455.69;10373189;28;1888;-69
2021/12/27 09:45:36;;;;;;;;;;;;;;;4.23;100.00;94461.81;10360850;28;2145;-70
2021/12/27 09:50:40;;;;;;;;;;;;;;;4.22;100.00;94454.91;10363461;28;1807;-70
2021/12/27 09:55:43;;;;;;;;;;;;;;;4.19;100.00;94466.06;10358741;28;1886;-69
2021/12/27 10:00:47;;;;;;;;;;;;;;;4.42;100.00;94462.06;10373713;28;1979;-69
2021/12/27 10:05:51;;;;;;;;;;;;;;;4.52;100.00;94448.78;10357875;28;1863;-70
2021/12/27 10:10:55;;;;;;;;;;;;;;;4.58;100.00;94437.03;10359618;28;1902;-69
2021/12/27 10:15:59;;;;;;;;;;;;;;;4.68;100.00;94434.38;10374688;28;1791;-69
2021/12/27 10:21:02;;;;;;;;;;;;;;;4.66;100.00;94433.84;10365674;28;1975;-69
2021/12/27 10:26:06;;;;;;;;;;;;;;;4.91;100.00;94437.53;10366965;28;1866;-69
2021/12/27 10:31:10;;;;;;;;;;;;;;;5.07;100.00;94431.88;10363785;28;1865;-69
2021/12/27 10:36:14;;;;;;;;;;;;;;;5.26;100.00;94432.06;10362278;28;2053;-70
2021/12/27 10:41:18;;;;;;;;;;;;;;;5.74;100.00;94423.59;10381756;28;2247;-70
2021/12/27 10:46:22;;;;;;;;;;;;;;;6.03;100.00;94413.00;10368793;28;1840;-71
2021/12/27 10:51:25;;;;;;;;;;;;;;;6.21;100.00;94415.81;10383387;28;1830;-71
2021/12/27 10:56:29;;;;;;;;;;;;;;;6.01;100.00;94399.16;10366499;28;1905;-70
2021/12/27 11:01:33;;;;;;;;;;;;;;;5.93;100.00;94404.03;10360017;28;1915;-70
2021/12/27 11:06:40;;;;;;;;;;;;;;;5.82;100.00;94391.78;10391940;28;1811;-72
2021/12/27 11:11:44;;;;;;;;;;;;;;;5.84;100.00;94383.50;10406221;28;1819;-69
2021/12/27 11:16:48;;;;;;;;;;;;;;;5.84;100.00;94384.31;10385297;28;2016;-70
2021/12/27 11:21:52;;;;;;;;;;;;;;;5.78;100.00;94363.28;10379008;28;1985;-69
2021/12/27 11:26:57;;;;;;;;;;;;;;;5.82;100.00;94343.78;10380384;28;1843;-70
2021/12/27 11:32:01;;;;;;;;;;;;;;;5.84;100.00;94341.63;10403897;28;1740;-69
2021/12/27 11:37:12;;;;;;;;;;;;;;;5.96;100.00;94341.31;10402134;28;1986;-69
2021/12/27 11:42:18;;;;;;;;;;;;;;;6.02;100.00;94326.06;10400686;28;2005;-70
2021/12/27 11:47:21;;;;;;;;;;;;;;;6.12;100.00;94315.31;10416094;28;1850;-69
2021/12/27 11:52:26;;;;;;;;;;;;;;;6.21;100.00;94313.63;10414687;28;1822;-70
2021/12/27 11:57:30;;;;;;;;;;;;;;;6.31;100.00;94308.19;10393983;28;1858;-69
2021/12/27 12:02:36;;;;;;;;;;;;;;;6.42;100.00;94304.31;10399783;28;1989;-68
2021/12/27 12:07:39;;;;;;;;;;;;;;;6.47;100.00;94306.94;10392304;28;2409;-67
2021/12/27 12:12:43;;;;;;;;;;;;;;;6.49;100.00;94315.47;10401077;28;1925;-67
2021/12/27 12:17:48;;;;;;;;;;;;;;;6.55;100.00;94302.06;10398257;28;1799;-69
2021/12/27 12:22:52;;;;;;;;;;;;;;;6.57;100.00;94299.91;10364462;28;1914;-69
2021/12/27 12:27:56;;;;;;;;;;;;;;;6.68;100.00;94282.69;10381647;28;1962;-69
2021/12/27 12:32:59;;;;;;;;;;;;;;;6.69;100.00;94276.28;10368138;28;1891;-68
2021/12/27 12:38:04;;;;;;;;;;;;;;;6.73;100.00;94277.28;10394646;22;1886;-81
2021/12/27 12:43:07;;;;;;;;;;;;;;;6.86;100.00;94270.44;10409850;28;1902;-81
2021/12/27 12:48:11;;;;;;;;;;;;;;;6.95;100.00;94274.88;10402766;28;1820;-79
2021/12/27 12:53:15;;;;;;;;;;;;;;;7.18;100.00;94267.88;10390147;28;1935;-79
2021/12/27 12:58:19;;;;;;;;;;;;;;;7.40;100.00;94259.28;10369940;28;1872;-78
2021/12/27 13:03:23;;;;;;;;;;;;;;;7.51;99.32;94255.38;10365559;28;2010;-78
2021/12/27 13:08:26;;;;;;;;;;;;;;;7.49;100.00;94251.41;10368926;28;1863;-77
2021/12/27 13:13:30;;;;;;;;;;;;;;;7.51;100.00;94255.38;10396417;28;1830;-82
2021/12/27 13:18:34;;;;;;;;;;;;;;;7.45;100.00;94243.19;10375097;28;1780;-82
2021/12/27 13:23:39;;;;;;;;;;;;;;;7.42;100.00;94235.72;10390739;28;1910;-79
2021/12/27 13:28:44;;;;;;;;;;;;;;;7.35;100.00;94229.16;10364077;28;1819;-78
2021/12/27 13:33:47;;;;;;;;;;;;;;;7.13;100.00;94221.75;10367978;28;2389;-80
2021/12/27 13:38:50;;;;;;;;;;;;;;;6.56;100.00;94223.56;10384107;28;1818;-80
2021/12/27 13:43:54;;;;;;;;;;;;;;;6.39;100.00;94224.81;10368535;28;1914;-77
2021/12/27 13:48:58;;;;;;;;;;;;;;;6.15;100.00;94222.16;10364207;28;1840;-77
2021/12/27 13:54:02;;;;;;;;;;;;;;;5.99;100.00;94234.06;10369970;28;1538;-79
2021/12/27 13:59:06;;;;;;;;;;;;;;;5.58;100.00;94236.28;10371017;28;1923;-78
2021/12/27 14:04:10;;;;;;;;;;;;;;;5.02;100.00;94240.13;10385834;28;2034;-79
2021/12/27 14:09:28;;;;;;;;;;;;;;;4.73;100.00;94242.69;10380832;28;1827;-80
2021/12/27 14:14:32;;;;;;;;;;;;;;;4.48;100.00;94250.81;10375263;28;2013;-79
2021/12/27 14:19:37;;;;;;;;;;;;;;;4.16;100.00;94249.31;10378163;28;1931;-78
2021/12/27 14:24:41;;;;;;;;;;;;;;;3.91;100.00;94257.34;10378394;28;1895;-76
2021/12/27 14:29:45;;;;;;;;;;;;;;;3.43;100.00;94264.81;10377180;28;1999;-78
2021/12/27 14:34:52;;;;;;;;;;;;;;;3.21;100.00;94265.84;10396398;28;2422;-79
2021/12/27 14:39:56;;;;;;;;;;;;;;;3.12;100.00;94262.16;10370364;28;1971;-78
2021/12/27 14:45:00;;;;;;;;;;;;;;;3.12;100.00;94259.50;10374404;28;1928;-79
2021/12/27 14:50:04;;;;;;;;;;;;;;;3.09;100.00;94254.69;10375267;28;1962;-78
2021/12/27 14:55:08;;;;;;;;;;;;;;;3.05;100.00;94266.88;10375177;28;1789;-80
2021/12/27 15:00:12;;;;;;;;;;;;;;;3.16;100.00;94281.00;10379006;28;1906;-79
2021/12/27 15:05:16;;;;;;;;;;;;;;;2.78;100.00;94280.38;10390822;28;1925;-78
2021/12/27 15:10:19;;;;;;;;;;;;;;;2.64;100.00;94293.34;10373213;28;1824;-78
2021/12/27 15:15:23;;;;;;;;;;;;;;;2.67;100.00;94298.13;10371330;28;1964;-78
2021/12/27 15:20:27;;;;;;;;;;;;;;;2.79;100.00;94311.16;10374482;28;1928;-80
2021/12/27 15:25:31;;;;;;;;;;;;;;;2.61;100.00;94307.13;10390859;28;1863;-80
2021/12/27 15:30:34;;;;;;;;;;;;;;;2.62;100.00;94311.38;10370017;28;1768;-77
2021/12/27 15:35:38;;;;;;;;;;;;;;;2.58;100.00;94310.28;10372854;28;1947;-77
2021/12/27 15:40:45;;;;;;;;;;;;;;;2.33;100.00;94318.13;10375874;28;1902;-80
2021/12/27 15:45:48;;;;;;;;;;;;;;;2.08;100.00;94322.22;10390396;28;1791;-78
2021/12/27 15:50:55;;;;;;;;;;;;;;;2.16;100.00;94328.88;10413111;28;1910;-80
2021/12/27 15:56:00;;;;;;;;;;;;;;;2.25;100.00;94321.28;10419968;28;1506;-77
2021/12/27 16:01:03;;;;;;;;;;;;;;;2.33;100.00;94328.72;10374998;28;1946;-78
2021/12/27 16:06:07;;;;;;;;;;;3.20;99.90;;;2.18;100.00;94342.69;10364614;28;1817;-78
2021/12/27 16:11:11;;;;;;;;;;;3.40;99.90;;;2.23;100.00;94341.91;10371759;28;1914;-79
2021/12/27 16:16:14;;;;;;;;;;;3.30;99.90;;;2.29;100.00;94340.91;10365520;28;2018;-79
2021/12/27 16:21:18;;;;;;;;;;;3.30;99.90;;;2.28;100.00;94355.22;10375821;28;1954;-77
2021/12/27 16:26:22;;;;;;;;;;;3.40;99.90;;;2.35;100.00;94353.91;10376631;28;1959;-77
2021/12/27 16:31:25;;;;;;;;;;;3.40;99.90;;;2.40;100.00;94347.84;10382006;28;1485;-78
2021/12/27 16:36:29;;;;;;;;;;;3.50;99.90;;;2.28;100.00;94347.25;10403388;28;1904;-79
2021/12/27 16:41:32;;;;;;;;;;;3.50;99.90;;;2.47;100.00;94348.41;10381139;28;1910;-78
2021/12/27 16:46:37;;;;;;;;;;;3.50;99.90;;;2.32;100.00;94343.84;10373349;28;1598;-76
2021/12/27 16:51:40;;;;;;;;;;;3.40;99.90;;;2.06;100.00;94350.03;10376844;28;2180;-79
2021/12/27 16:56:45;;;;;;;;;;;3.30;99.90;;;2.02;100.00;94348.94;10383500;28;1878;-82
2021/12/27 17:01:48;;;;;;;;;;;3.20;99.90;;;2.10;100.00;94351.94;10386709;28;1907;-80
2021/12/27 17:06:57;;;;;;;;;;;3.10;99.90;;;2.17;100.00;94355.16;10388588;28;1452;-78
2021/12/27 17:12:00;;;;;;;;;;;3.20;99.90;;;2.22;100.00;94350.94;10381083;28;1885;-79
2021/12/27 17:17:03;;;;;;;;;;;3.20;99.90;;;2.26;100.00;94355.47;10381862;28;1877;-77
2021/12/27 17:22:09;;;;;;;;;;;3.30;99.90;;;2.21;100.00;94352.78;10387871;28;1922;-78
2021/12/27 17:27:14;;;;;;;;;;;3.70;99.90;;;2.12;100.00;94349.03;10385589;28;1780;-78
2021/12/27 17:32:18;;;;;;;;;;;3.20;99.90;;;2.19;100.00;94364.72;10396274;28;2359;-77
2021/12/27 17:37:22;;;;;;;;;;;3.30;99.90;;;2.11;100.00;94358.84;10370598;28;1812;-78
2021/12/27 17:42:25;;;;;;;;;;;3.20;99.90;;;2.05;100.00;94362.50;10374604;28;2050;-79
2021/12/27 17:47:30;;;;;;;;;;;3.20;99.90;;;2.23;100.00;94363.13;10393250;28;2442;-80
2021/12/27 17:52:32;;;;;;;;;;;3.20;99.90;;;2.41;100.00;94373.31;10371590;28;1836;-81
2021/12/27 17:57:36;;;;;;;;;;;3.40;99.90;;;2.53;100.00;94386.38;10368847;28;1862;-79
2021/12/27 18:02:39;;;;;;;;;;;3.50;99.90;;;2.61;100.00;94383.28;10367451;28;1979;-79
2021/12/27 18:07:42;;;;;;;;;;;3.50;99.90;;;2.63;100.00;94400.50;10364840;28;1851;-78
2021/12/27 18:12:46;;;;;;;;;;;3.60;99.90;;;2.62;100.00;94398.91;10366760;28;1871;-80
2021/12/27 18:17:49;;;;;;;;;;;3.70;99.90;;;2.32;100.00;94398.72;10362534;28;1793;-78
2021/12/27 18:22:52;;;;;;;;;;;3.60;99.90;;;2.38;100.00;94413.63;10366183;28;2010;-76
2021/12/27 18:27:56;;;;;;;;;;;3.50;99.90;;;2.20;100.00;94408.72;10363003;28;1918;-79
2021/12/27 18:32:59;;;;;;;;;;;3.40;99.90;;;2.27;100.00;94419.91;10361210;28;1886;-80
2021/12/27 18:38:03;;;;;;;;;;;3.30;99.90;;;2.36;100.00;94418.38;10363201;28;1851;-80
2021/12/27 18:43:06;;;;;;;;;;;3.40;99.90;;;2.34;100.00;94408.03;10368371;28;1979;-81
2021/12/27 18:48:09;;;;;;;;;;;3.40;99.90;;;2.49;100.00;94415.28;10370896;28;1921;-77
2021/12/27 18:53:12;;;;;;;;;;;3.40;99.90;;;2.65;100.00;94419.63;10368529;28;2089;-77
2021/12/27 18:58:17;;;;;;;;;;;3.60;99.90;;;2.72;100.00;94433.44;10370734;28;2233;-75
2021/12/27 19:03:21;;;;;;;;;;;3.60;99.90;;;2.68;100.00;94427.09;10373014;28;2267;-79
2021/12/27 19:08:24;;;;;;;;;;;3.70;99.90;;;2.77;100.00;94435.34;10374384;28;1936;-80
2021/12/27 19:13:27;;;;;;;;;;;3.70;99.90;;;2.70;100.00;94440.88;10378488;28;1899;-76
2021/12/27 19:18:30;;;;;;;;;;;3.70;99.90;;;2.66;100.00;94446.94;10379098;28;2085;-77
2021/12/27 19:23:33;;;;;;;;;;;3.80;99.90;;;2.64;100.00;94452.50;10366311;28;1946;-80
2021/12/27 19:28:38;;;;;;;;;;;3.70;99.90;;;2.61;100.00;94450.38;10365115;28;1840;-80
2021/12/27 19:33:41;;;;;;;;;;;3.60;99.90;;;2.64;100.00;94449.06;10367473;28;1855;-81
2021/12/27 19:38:44;;;;;;;;;;;3.70;99.90;;;2.66;100.00;94444.28;10366915;28;1887;-80
2021/12/27 19:43:47;;;;;;;;;;;3.60;99.90;;;2.77;100.00;94455.78;10370825;28;1918;-78
2021/12/27 19:48:50;;;;;;;;;;;3.70;99.90;;;2.77;100.00;94466.38;10369666;28;1573;-78
2021/12/27 19:53:53;;;;;;;;;;;3.70;99.90;;;2.75;100.00;94471.16;10369214;28;1518;-80
2021/12/27 19:58:56;;;;;;;;;;;3.70;99.90;;;2.83;100.00;94481.28;10366378;28;1678;-79
2021/12/27 20:04:00;;;;;;;;;;;3.90;99.90;;;2.88;100.00;94473.34;10363559;28;1910;-79
2021/12/27 20:09:03;;;;;;;;;;;3.80;99.90;;;2.97;100.00;94482.44;10420058;28;1828;-81
2021/12/27 20:14:08;;;;;;;;;;;3.80;99.90;;;2.99;100.00;94477.69;10415167;28;1781;-77
2021/12/27 20:19:11;;;;;;;;;;;3.90;99.90;;;3.13;100.00;94478.81;10370347;28;1976;-76
2021/12/27 20:24:15;;;;;;;;;;;4.00;99.90;;;3.08;100.00;94481.44;10371501;28;1985;-80
2021/12/27 20:29:18;;;;;;;;;;;4.00;99.90;;;3.09;100.00;94477.72;10404421;28;2201;-82
2021/12/27 20:34:22;;;;;;;;;;;4.10;99.90;;;3.12;100.00;94477.22;10397934;28;2006;-78
2021/12/27 20:39:25;;;;;;;;;;;4.10;99.90;;;3.07;100.00;94482.50;10397602;28;1882;-79
2021/12/27 20:44:29;;;;;;;;;;;4.20;99.90;;;3.07;100.00;94479.84;10384212;28;1895;-77
2021/12/27 20:49:33;;;;;;;;;;;4.20;99.90;;;2.97;100.00;94474.47;10364733;28;1824;-80
2021/12/27 20:54:36;;;;;;;;;;;4.20;99.90;;;3.02;100.00;94479.81;10371970;28;1867;-79
2021/12/27 20:59:39;;;;;;;;;;;4.10;99.90;;;3.02;100.00;94479.81;10366718;28;1885;-79
2021/12/27 21:04:42;;;;;;;;;;;4.10;99.90;;;3.14;100.00;94487.56;10383275;28;1954;-79
2021/12/27 21:09:46;;;;;;;;;;;4.30;99.90;;;3.27;100.00;94475.69;10388089;28;1888;-80
2021/12/27 21:14:49;;;;;;;;;;;4.20;99.90;;;3.35;100.00;94483.94;10384313;28;1909;-81
2021/12/27 21:19:52;;;;;;;;;;;4.30;99.90;;;3.45;100.00;94493.81;10383526;28;1907;-76
2021/12/27 21:24:55;;;;;;;;;;;4.40;99.90;;;3.40;100.00;94493.78;10384002;28;1981;-77
2021/12/27 21:29:58;;;;;;;;;;;4.40;99.90;;;3.49;100.00;94497.53;10385337;28;1844;-79
2021/12/27 21:35:01;;;;;;;;;;;4.40;99.90;;;3.56;100.00;94505.25;10390192;28;1884;-77
2021/12/27 21:40:04;;;;;;;;;;;4.60;99.90;;;3.62;100.00;94514.84;10389063;28;1875;-78
2021/12/27 21:45:07;;;;;;;;;;;4.60;99.90;;;3.73;100.00;94517.28;10389733;28;1965;-79
2021/12/27 21:50:12;;;;;;;;;;;4.60;99.90;;;3.87;100.00;94524.75;10394083;28;1831;-80
2021/12/27 21:55:15;;;;;;;;;;;4.80;99.90;;;3.85;100.00;94510.94;10392332;28;1830;-79
2021/12/27 22:00:18;;;;;;;;;;;4.80;99.90;;;3.85;100.00;94508.28;10383397;28;2319;-79
2021/12/27 22:05:22;;;;;;;;;;;4.80;99.90;;;3.98;100.00;94523.72;10405496;28;1946;-79
2021/12/27 22:10:27;;;;;;;;;;;5.00;99.90;;;4.11;100.00;94525.88;10401084;28;1827;-79
2021/12/27 22:15:32;;;;;;;;;;;4.90;99.90;;;4.12;100.00;94532.78;10410882;28;1824;-78
2021/12/27 22:20:35;;;;;;;;;;;5.10;99.90;;;4.18;100.00;94541.59;10395191;28;1891;-78
2021/12/27 22:25:38;;;;;;;;;;;5.10;99.90;;;4.17;100.00;94540.78;10394526;28;1914;-78
2021/12/27 22:30:41;;;;;;;;;;;5.20;99.90;;;4.19;100.00;94545.84;10399336;28;1895;-78
2021/12/27 22:35:45;;;;;;;;;;;5.20;99.90;;;4.31;100.00;94543.75;10395663;28;1884;-79
2021/12/27 22:40:48;;;;;;;;;;;5.20;99.90;;;4.30;100.00;94520.88;10407357;28;1716;-80
2021/12/27 22:45:55;;;;;;;;;;;5.40;99.90;;;4.30;100.00;94516.34;10419456;28;1894;-80
2021/12/27 22:50:59;;;;;;;;;;;5.30;99.90;;;4.44;100.00;94510.50;10411304;28;1835;-78
2021/12/27 22:56:02;;;;;;;;;;;5.40;99.90;;;4.52;100.00;94508.13;10406196;28;1898;-82
2021/12/27 23:01:06;;;;;;;;;;;5.50;99.90;;;4.56;100.00;94498.53;10420878;28;1939;-79
2021/12/27 23:06:09;;;;;;;;;;;5.50;99.90;;;4.67;100.00;94501.19;10405020;28;1902;-79
2021/12/27 23:11:13;;;;;;;;;;;5.50;99.90;;;4.68;100.00;94495.59;10402433;28;1960;-81
2021/12/27 23:16:16;;;;;;;;;;;5.60;99.90;;;4.74;100.00;94491.84;10405354;28;1885;-79
2021/12/27 23:21:19;;;;;;;;;;;5.70;99.90;;;4.76;100.00;94479.06;10383369;28;2050;-80
2021/12/27 23:26:22;;;;;;;;;;;5.80;99.90;;;4.83;100.00;94476.13;10369941;28;1979;-79
2021/12/27 23:31:29;;;;;;;;;;;5.70;99.90;;;4.83;100.00;94455.63;10383316;28;1840;-78
2021/12/27 23:36:39;;;;;;;;;;;5.80;99.90;;;4.88;100.00;94462.81;10366709;28;1843;-79
2021/12/27 23:41:45;;;;;;;;;;;5.90;99.90;;;4.93;100.00;94459.34;10373082;28;1903;-79
2021/12/27 23:46:49;;;;;;;;;;;6.00;99.90;;;4.92;100.00;94450.56;10367632;28;1851;-81
2021/12/27 23:51:52;;;;;;;;;;;5.90;99.90;;;4.97;100.00;94449.75;10367771;28;1873;-77
2021/12/27 23:56:55;;;;;;;;;;;5.90;99.90;;;4.93;100.00;94443.38;10399654;22;2003;-72
